createdAt,value
2022-11-14T00:04:35.943Z,22.40
2022-11-14T00:09:57.292Z,23.58
2022-11-14T00:15:18.771Z,30.03
2022-11-14T00:20:40.064Z,25.80
2022-11-14T00:26:01.410Z,21.03
2022-11-14T00:31:22.440Z,22.15
2022-11-14T00:36:43.645Z,17.90
2022-11-14T00:42:04.834Z,19.97
2022-11-14T00:47:26.023Z,15.73
2022-11-14T00:52:47.290Z,17.10
2022-11-14T00:58:08.198Z,19.60
2022-11-14T01:03:29.376Z,18.83
2022-11-14T01:08:51.461Z,20.63
2022-11-14T01:14:12.887Z,18.17
2022-11-14T01:19:34.497Z,21.70
2022-11-14T01:24:58.537Z,16.65
2022-11-14T01:30:19.808Z,15.85
2022-11-14T01:35:41.032Z,14.50
2022-11-14T01:41:02.535Z,17.10
2022-11-14T01:46:31.579Z,15.97
2022-11-14T01:52:01.225Z,20.65
2022-11-14T01:57:39.262Z,6.57
2022-11-14T02:03:01.285Z,20.17
2022-11-14T02:08:24.589Z,17.98
2022-11-14T02:13:46.368Z,14.67
2022-11-14T02:19:07.398Z,15.88
2022-11-14T02:24:28.657Z,14.50
2022-11-14T02:29:49.652Z,15.93
2022-11-14T02:35:11.408Z,11.85
2022-11-14T02:40:32.942Z,14.33
2022-11-14T02:45:54.150Z,14.13
2022-11-14T02:51:15.518Z,17.10
2022-11-14T02:56:36.317Z,10.77
2022-11-14T03:01:57.607Z,14.18
2022-11-14T03:07:19.118Z,13.50
2022-11-14T03:12:40.497Z,17.85
2022-11-14T03:18:01.270Z,14.00
2022-11-14T03:23:22.358Z,16.20
2022-11-14T03:28:43.839Z,16.08
2022-11-14T03:34:04.981Z,14.20
2022-11-14T03:39:26.669Z,15.18
2022-11-14T03:44:48.009Z,24.30
2022-11-14T03:50:09.494Z,17.43
2022-11-14T03:55:30.771Z,9.32
2022-11-14T04:00:51.923Z,21.03
2022-11-14T04:06:13.552Z,9.15
2022-11-14T04:11:34.982Z,11.82
2022-11-14T04:16:56.459Z,11.60
2022-11-14T04:22:17.488Z,12.77
2022-11-14T04:27:38.760Z,18.37
2022-11-14T04:33:00.200Z,11.05
2022-11-14T04:38:21.598Z,10.57
2022-11-14T04:43:46.757Z,10.13
2022-11-14T04:49:10.849Z,17.52
2022-11-14T04:54:31.852Z,12.53
2022-11-14T04:59:52.844Z,14.23
2022-11-14T05:05:13.979Z,13.55
2022-11-14T05:10:35.516Z,13.63
2022-11-14T05:16:00.365Z,12.13
2022-11-14T05:21:21.883Z,14.97
2022-11-14T05:26:43.171Z,11.48
2022-11-14T05:32:04.614Z,13.40
2022-11-14T05:37:26.176Z,9.73
2022-11-14T05:42:47.435Z,13.60
2022-11-14T05:48:08.553Z,11.47
2022-11-14T05:53:31.045Z,14.05
2022-11-14T05:58:52.084Z,12.77
2022-11-14T06:04:15.681Z,12.63
2022-11-14T06:09:36.784Z,12.27
2022-11-14T06:14:58.405Z,18.27
2022-11-14T06:20:19.492Z,16.90
2022-11-14T06:25:40.782Z,17.00
2022-11-14T06:31:04.295Z,14.67
2022-11-14T06:36:25.584Z,11.13
2022-11-14T06:41:46.905Z,14.13
2022-11-14T06:47:07.895Z,13.30
2022-11-14T06:52:29.784Z,14.25
2022-11-14T06:57:55.052Z,17.93
2022-11-14T07:03:16.572Z,16.17
2022-11-14T07:08:38.092Z,15.90
2022-11-14T07:14:01.375Z,20.65
2022-11-14T07:19:22.705Z,21.90
2022-11-14T07:24:43.764Z,17.60
2022-11-14T07:30:05.239Z,18.15
2022-11-14T07:35:26.881Z,17.73
2022-11-14T07:41:01.432Z,23.90
2022-11-14T07:46:22.745Z,22.60
2022-11-14T07:51:44.106Z,20.40
2022-11-14T07:57:05.213Z,22.08
2022-11-14T08:02:26.411Z,13.90
2022-11-14T08:07:50.830Z,11.07
2022-11-14T08:18:53.615Z,22.23
2022-11-14T08:24:15.216Z,15.63
2022-11-14T08:29:36.879Z,14.07
2022-11-14T08:34:58.049Z,14.82
2022-11-14T08:40:19.303Z,16.80
2022-11-14T08:45:40.569Z,19.77
2022-11-14T08:51:06.944Z,18.35
2022-11-14T08:56:28.299Z,14.27
2022-11-14T09:01:49.574Z,19.83
2022-11-14T09:07:11.170Z,17.05
2022-11-14T09:12:33.110Z,16.77
2022-11-14T09:17:58.378Z,18.65
2022-11-14T09:23:19.885Z,20.00
2022-11-14T09:28:41.915Z,20.52
2022-11-14T09:34:02.985Z,20.25
2022-11-14T09:39:24.039Z,18.03
2022-11-14T09:45:04.424Z,18.90
2022-11-14T09:50:33.434Z,19.20
2022-11-14T09:55:54.635Z,16.17
2022-11-14T10:01:35.453Z,17.80
2022-11-14T10:07:13.593Z,16.37
2022-11-14T10:13:03.955Z,14.98
2022-11-14T10:18:51.202Z,18.93
2022-11-14T10:24:44.233Z,12.27
2022-11-14T10:30:14.953Z,18.92
2022-11-14T10:35:47.355Z,16.67
2022-11-14T10:41:19.223Z,20.70
2022-11-14T10:46:56.558Z,25.67
2022-11-14T10:52:21.087Z,25.38
2022-11-14T10:57:43.810Z,20.58
2022-11-14T11:03:04.809Z,25.00
2022-11-14T11:08:44.893Z,13.50
2022-11-14T11:14:18.153Z,17.40
2022-11-14T11:19:40.279Z,19.55
2022-11-14T11:25:01.614Z,23.60
2022-11-14T11:30:23.927Z,25.90
2022-11-14T11:35:47.974Z,22.17
2022-11-14T11:42:07.834Z,13.87
2022-11-14T11:47:19.097Z,18.83
2022-11-14T11:53:02.655Z,21.27
2022-11-14T11:58:33.115Z,24.57
2022-11-14T12:03:55.232Z,13.13
2022-11-14T12:09:29.466Z,19.80
2022-11-14T12:15:04.194Z,26.52
2022-11-14T12:20:49.352Z,21.35
2022-11-14T12:26:39.959Z,20.90
2022-11-14T12:32:07.180Z,22.10
2022-11-14T12:37:45.370Z,18.60
2022-11-14T12:43:34.677Z,26.23
2022-11-14T12:48:57.729Z,21.48
2022-11-14T12:54:44.236Z,23.93
2022-11-14T13:00:09.378Z,21.60
2022-11-14T13:05:39.739Z,29.77
2022-11-14T13:11:00.794Z,27.25
2022-11-14T13:16:48.684Z,26.85
2022-11-14T13:22:12.746Z,23.87
2022-11-14T13:28:05.480Z,28.55
2022-11-14T13:33:53.385Z,28.97
2022-11-14T13:39:26.816Z,28.60
2022-11-14T13:45:00.636Z,27.13
2022-11-14T13:50:33.186Z,26.33
2022-11-14T13:55:59.981Z,30.52
2022-11-14T14:01:30.557Z,28.60
2022-11-14T14:07:31.111Z,41.78
2022-11-14T14:13:04.346Z,28.08
2022-11-14T14:18:45.842Z,32.80
2022-11-14T14:24:21.396Z,25.30
2022-11-14T14:29:54.877Z,29.77
2022-11-14T14:35:27.617Z,19.92
2022-11-14T14:40:48.994Z,36.33
2022-11-14T14:46:11.049Z,23.77
2022-11-14T14:51:35.706Z,30.90
2022-11-14T14:57:03.776Z,31.70
2022-11-14T15:02:26.074Z,32.17
2022-11-14T15:07:49.714Z,31.48
2022-11-14T15:13:16.618Z,30.73
2022-11-14T15:18:38.756Z,32.67
2022-11-14T15:24:20.444Z,31.53
2022-11-14T15:30:19.815Z,31.20
2022-11-14T15:35:41.526Z,29.33
2022-11-14T15:41:25.505Z,25.47
2022-11-14T15:46:48.300Z,32.35
2022-11-14T15:52:21.954Z,38.83
2022-11-14T15:57:48.402Z,44.90
2022-11-14T16:03:20.914Z,36.95
2022-11-14T16:08:41.985Z,32.37
2022-11-14T16:14:03.684Z,35.05
2022-11-14T16:19:25.013Z,37.53
2022-11-14T16:24:46.250Z,40.85
2022-11-14T16:30:08.907Z,31.08
2022-11-14T16:35:30.119Z,35.47
2022-11-14T16:40:51.633Z,37.15
2022-11-14T16:46:13.156Z,35.97
2022-11-14T16:51:51.255Z,28.90
2022-11-14T16:57:12.884Z,32.15
2022-11-14T17:02:34.181Z,40.87
2022-11-14T17:07:57.442Z,27.92
2022-11-14T17:13:24.190Z,38.17
2022-11-14T17:18:45.633Z,43.22
2022-11-14T17:24:07.230Z,41.28
2022-11-14T17:29:28.550Z,36.23
2022-11-14T17:34:50.022Z,35.03
2022-11-14T17:40:15.497Z,25.00
2022-11-14T17:45:40.945Z,20.30
2022-11-14T17:51:07.521Z,30.50
2022-11-14T17:56:28.804Z,37.53
2022-11-14T18:01:50.274Z,48.67
2022-11-14T18:07:12.085Z,28.90
2022-11-14T18:12:33.270Z,44.15
2022-11-14T18:17:54.492Z,22.55
2022-11-14T18:23:15.600Z,40.47
2022-11-14T18:28:36.736Z,28.73
2022-11-14T18:33:58.414Z,35.63
2022-11-14T18:39:19.856Z,31.77
2022-11-14T18:44:41.592Z,38.58
2022-11-14T18:50:04.164Z,45.00
2022-11-14T18:55:25.476Z,52.10
2022-11-14T19:00:46.912Z,38.67
2022-11-14T19:06:10.372Z,31.75
2022-11-14T19:11:49.964Z,36.78
2022-11-14T19:17:11.794Z,26.10
2022-11-14T19:22:33.114Z,23.02
2022-11-14T19:27:54.206Z,35.43
2022-11-14T19:33:15.104Z,36.95
2022-11-14T19:38:36.781Z,29.05
2022-11-14T19:44:00.236Z,38.47
2022-11-14T19:49:21.611Z,35.92
2022-11-14T19:54:43.515Z,31.53
2022-11-14T20:00:05.134Z,33.28
2022-11-14T20:05:26.294Z,29.77
2022-11-14T20:11:02.336Z,39.13
2022-11-14T20:16:26.642Z,25.23
2022-11-14T20:21:49.697Z,28.90
2022-11-14T20:27:11.303Z,35.13
2022-11-14T20:32:32.412Z,36.28
2022-11-14T20:37:53.754Z,26.33
2022-11-14T20:43:14.812Z,34.88
2022-11-14T20:48:36.063Z,34.63
2022-11-14T20:53:57.216Z,34.95
2022-11-14T20:59:18.323Z,33.45
2022-11-14T21:04:39.595Z,34.67
2022-11-14T21:10:19.251Z,37.13
2022-11-14T21:15:40.555Z,32.43
2022-11-14T21:21:08.275Z,31.20
2022-11-14T21:26:32.566Z,26.80
2022-11-14T21:31:54.887Z,23.63
2022-11-14T21:37:16.143Z,30.45
2022-11-14T21:42:37.210Z,25.53
2022-11-14T21:47:58.646Z,24.05
2022-11-14T21:53:19.735Z,22.70
2022-11-14T21:58:41.644Z,26.03
2022-11-14T22:04:14.865Z,35.25
2022-11-14T22:09:39.912Z,22.33
2022-11-14T22:15:04.284Z,32.50
2022-11-14T22:20:25.515Z,23.13
2022-11-14T22:25:54.083Z,23.13
2022-11-14T22:31:20.556Z,30.15
2022-11-14T22:36:41.797Z,36.43
2022-11-14T22:42:03.213Z,29.17
2022-11-14T22:47:24.374Z,31.50
2022-11-14T22:52:45.665Z,27.63
2022-11-14T22:58:06.920Z,32.85
2022-11-14T23:03:29.030Z,30.17
2022-11-14T23:08:50.300Z,33.33
2022-11-14T23:14:14.539Z,19.77
2022-11-14T23:19:35.592Z,21.37
2022-11-14T23:24:56.685Z,32.17
2022-11-14T23:30:17.914Z,37.13
2022-11-14T23:35:39.056Z,34.58
2022-11-14T23:41:02.306Z,52.63
2022-11-14T23:46:23.615Z,44.90
2022-11-14T23:51:44.850Z,40.80
2022-11-14T23:57:05.939Z,30.97
